Time;durP1;ratioP1;P1;durP2;ratioP2;P2;SDS_P1;SDS_P2;PMS_P1;PMS_P2;Temp;Humidity;BMP_temperature;BMP_pressure;BME280_temperature;BME280_humidity;BME280_pressure;Samples;Min_cycle;Max_cycle;Signal;HPM_P1;HPM_P2
2022/07/14 00:01:30;;;;;;;5.25;3.53;;;19.20;97.60;;;;;;5111997;28;20063;-49
2022/07/14 00:03:56;;;;;;;5.72;3.47;;;19.20;97.80;;;;;;5112079;28;20028;-55
2022/07/14 00:06:22;;;;;;;6.32;3.47;;;19.20;97.90;;;;;;5112028;28;20031;-54
2022/07/14 00:08:47;;;;;;;5.88;3.45;;;19.20;98.00;;;;;;5112011;28;20081;-57
2022/07/14 00:11:13;;;;;;;6.45;3.65;;;19.10;98.10;;;;;;5093414;28;20026;-60
2022/07/14 00:13:39;;;;;;;7.32;3.95;;;19.10;98.10;;;;;;5111447;28;20048;-53
2022/07/14 00:16:05;;;;;;;6.13;3.92;;;19.10;98.20;;;;;;5110841;28;20027;-59
2022/07/14 00:18:31;;;;;;;7.88;4.00;;;19.10;98.30;;;;;;5111424;28;20027;-46
2022/07/14 00:20:56;;;;;;;8.20;4.05;;;19.10;98.30;;;;;;5111780;28;20019;-52
2022/07/14 00:23:24;;;;;;;7.15;3.92;;;19.00;98.40;;;;;;5111698;28;20121;-47
2022/07/14 00:25:50;;;;;;;7.80;4.15;;;19.00;98.60;;;;;;5111598;28;20027;-59
2022/07/14 00:28:17;;;;;;;7.88;4.47;;;18.90;98.60;;;;;;5111204;28;20039;-55
2022/07/14 00:30:44;;;;;;;9.27;4.20;;;18.90;98.70;;;;;;5111416;28;20125;-58
2022/07/14 00:33:09;;;;;;;8.15;3.92;;;18.80;98.70;;;;;;5111678;28;20387;-56
2022/07/14 00:35:35;;;;;;;6.70;4.60;;;18.80;98.90;;;;;;5111455;28;20040;-54
2022/07/14 00:38:03;;;;;;;8.07;4.40;;;18.70;99.10;;;;;;5111494;28;20024;-44
2022/07/14 00:40:29;;;;;;;9.18;4.50;;;18.70;99.20;;;;;;5111452;28;20034;-57
2022/07/14 00:42:55;;;;;;;7.85;4.63;;;18.70;99.30;;;;;;5111438;28;20028;-59
2022/07/14 00:45:21;;;;;;;6.28;4.40;;;18.70;99.40;;;;;;5111200;28;20367;-43
2022/07/14 00:47:48;;;;;;;8.30;4.90;;;18.60;99.50;;;;;;5110473;28;20062;-54
2022/07/14 00:50:16;;;;;;;10.43;4.78;;;18.60;99.60;;;;;;5111136;28;20099;-51
2022/07/14 00:52:44;;;;;;;7.40;4.55;;;18.50;99.70;;;;;;5110539;28;20038;-56
2022/07/14 00:55:12;;;;;;;7.82;4.97;;;18.50;99.80;;;;;;5111322;28;20061;-45
2022/07/14 00:57:38;;;;;;;8.05;5.07;;;18.50;99.90;;;;;;5111118;28;20034;-56
2022/07/14 01:00:09;;;;;;;9.10;5.00;;;18.50;99.90;;;;;;5111211;28;20024;-56
2022/07/14 01:02:35;;;;;;;9.77;5.05;;;18.50;99.90;;;;;;5110992;28;20382;-52
2022/07/14 01:05:01;;;;;;;8.18;5.10;;;18.50;99.90;;;;;;5111359;28;20050;-57
2022/07/14 01:07:27;;;;;;;9.18;5.22;;;18.40;99.90;;;;;;5092873;28;20438;-52
2022/07/14 01:09:52;;;;;;;10.48;5.63;;;18.40;99.90;;;;;;5111169;28;20735;-60
2022/07/14 01:12:18;;;;;;;8.73;5.28;;;18.30;99.90;;;;;;5111225;28;20474;-54
2022/07/14 01:14:45;;;;;;;7.35;5.18;;;18.30;99.90;;;;;;5111195;28;20019;-50
2022/07/14 01:17:11;;;;;;;12.02;5.47;;;18.30;99.90;;;;;;5111062;28;20039;-44
2022/07/14 01:19:37;;;;;;;9.07;5.43;;;18.30;99.90;;;;;;5110944;28;20028;-56
2022/07/14 01:22:03;;;;;;;13.02;5.28;;;18.30;99.90;;;;;;5111210;28;20031;-59
2022/07/14 01:24:29;;;;;;;10.68;5.55;;;18.20;99.90;;;;;;5109528;28;20096;-62
2022/07/14 01:26:55;;;;;;;9.75;5.70;;;18.20;99.90;;;;;;5109499;28;20059;-57
2022/07/14 01:29:23;;;;;;;11.85;5.03;;;18.20;99.90;;;;;;5109978;28;20023;-44
2022/07/14 01:31:49;;;;;;;8.85;5.45;;;18.20;99.90;;;;;;5111533;28;20028;-55
2022/07/14 01:34:15;;;;;;;9.32;5.38;;;18.20;99.90;;;;;;5113033;28;20080;-55
2022/07/14 01:36:41;;;;;;;10.20;5.75;;;18.10;99.90;;;;;;5099627;28;20100;-53
2022/07/14 01:39:07;;;;;;;12.90;5.60;;;18.10;99.90;;;;;;5094605;28;20016;-55
2022/07/14 01:41:34;;;;;;;9.27;5.55;;;18.10;99.90;;;;;;5107187;28;20032;-55
2022/07/14 01:44:00;;;;;;;14.70;6.10;;;18.00;99.90;;;;;;5095710;28;20069;-40
2022/07/14 01:46:25;;;;;;;10.95;5.32;;;17.90;99.90;;;;;;5094100;28;20052;-52
2022/07/14 01:48:51;;;;;;;11.95;6.10;;;17.90;99.90;;;;;;5094210;28;20115;-60
2022/07/14 01:51:17;;;;;;;13.15;5.80;;;17.90;99.90;;;;;;5094352;28;20023;-60
2022/07/14 01:53:43;;;;;;;10.45;6.47;;;17.90;99.90;;;;;;5095950;28;20388;-58
2022/07/14 01:56:10;;;;;;;14.52;6.78;;;17.80;99.90;;;;;;5106093;28;20045;-54
2022/07/14 01:58:35;;;;;;;13.90;6.82;;;17.70;99.90;;;;;;5106949;28;20024;-53
2022/07/14 02:03:46;;;;;;;14.57;7.05;;;17.70;99.90;;;;;;5094348;28;20096;-53
2022/07/14 02:06:12;;;;;;;8.73;5.95;;;17.60;99.90;;;;;;5093787;28;20475;-60
2022/07/14 02:08:38;;;;;;;11.00;6.10;;;17.70;99.90;;;;;;5093980;28;20032;-59
2022/07/14 02:13:48;;;;;;;12.55;6.10;;;17.60;99.90;;;;;;5094195;28;20043;-55
2022/07/14 02:16:14;;;;;;;8.90;5.45;;;17.70;99.90;;;;;;5093624;28;20020;-58
2022/07/14 02:18:40;;;;;;;13.18;5.85;;;17.60;99.90;;;;;;5093652;28;20051;-56
2022/07/14 02:21:06;;;;;;;12.18;5.82;;;17.60;99.90;;;;;;5101951;28;20441;-46
2022/07/14 02:23:31;;;;;;;9.38;5.53;;;17.60;99.90;;;;;;5110257;28;20177;-53
2022/07/14 02:25:57;;;;;;;9.57;5.28;;;17.60;99.90;;;;;;5107786;28;20070;-49
2022/07/14 02:28:23;;;;;;;11.32;5.57;;;17.50;99.90;;;;;;5107697;28;20028;-54
2022/07/14 02:30:49;;;;;;;10.98;5.05;;;17.50;99.90;;;;;;5093438;28;20091;-50
2022/07/14 02:33:14;;;;;;;10.23;6.07;;;17.40;99.90;;;;;;5107506;28;20027;-56
2022/07/14 02:35:40;;;;;;;10.75;5.53;;;17.40;99.90;;;;;;5093336;28;20020;-51
2022/07/14 02:38:06;;;;;;;11.85;5.65;;;17.40;99.90;;;;;;5093241;28;20498;-52
2022/07/14 02:40:32;;;;;;;9.48;4.85;;;17.30;99.90;;;;;;5095888;28;20019;-59
2022/07/14 02:43:32;;;;;;;12.05;5.72;;;17.30;99.90;;;;;;5100724;27;20028;-51
2022/07/14 02:45:59;;;;;;;11.13;5.65;;;17.30;99.90;;;;;;5092818;28;20024;-50
2022/07/14 02:48:25;;;;;;;9.85;5.00;;;17.30;99.90;;;;;;5107393;28;20138;-54
2022/07/14 02:50:57;;;;;;;11.50;5.60;;;17.30;99.90;;;;;;5093157;28;20454;-55
2022/07/14 02:53:22;;;;;;;10.23;5.22;;;17.30;99.90;;;;;;5092877;28;20032;-59
2022/07/14 02:55:48;;;;;;;12.98;5.30;;;17.30;99.90;;;;;;5092909;28;20027;-51
2022/07/14 02:58:13;;;;;;;8.57;4.85;;;17.20;99.90;;;;;;5092888;28;20027;-51
2022/07/14 03:00:39;;;;;;;10.15;5.38;;;17.20;99.90;;;;;;5092768;28;20146;-55
2022/07/14 03:03:06;;;;;;;11.10;5.50;;;17.20;99.90;;;;;;5092756;28;20398;-56
2022/07/14 03:05:32;;;;;;;10.35;5.07;;;17.10;99.90;;;;;;5092907;28;20034;-55
2022/07/14 03:07:58;;;;;;;10.80;5.03;;;17.10;99.90;;;;;;5102528;28;20127;-52
2022/07/14 03:10:23;;;;;;;12.00;5.20;;;17.00;99.90;;;;;;5110004;28;20538;-52
2022/07/14 03:12:49;;;;;;;11.88;5.65;;;17.00;99.90;;;;;;5092674;28;20028;-59
2022/07/14 03:15:15;;;;;;;10.50;5.32;;;17.00;99.90;;;;;;5092676;28;20026;-55
2022/07/14 03:17:40;;;;;;;11.75;5.60;;;17.00;99.90;;;;;;5092497;28;20024;-49
2022/07/14 03:20:07;;;;;;;10.75;5.18;;;17.00;99.90;;;;;;5092688;28;20063;-50
2022/07/14 03:22:33;;;;;;;9.82;5.25;;;16.90;99.90;;;;;;5092318;28;20046;-56
2022/07/14 03:24:59;;;;;;;12.70;5.30;;;17.00;99.90;;;;;;5078709;28;20016;-53
2022/07/14 03:27:25;;;;;;;12.52;5.68;;;16.90;99.90;;;;;;5104774;28;20148;-56
2022/07/14 03:29:51;;;;;;;9.20;5.97;;;16.80;99.90;;;;;;5094889;28;20452;-58
2022/07/14 03:32:17;;;;;;;15.10;7.07;;;16.80;99.90;;;;;;5108521;28;20030;-46
2022/07/14 03:34:43;;;;;;;10.43;6.22;;;16.80;99.90;;;;;;5098498;28;20024;-58
2022/07/14 03:37:09;;;;;;;10.63;6.28;;;16.80;99.90;;;;;;5092320;28;20394;-52
2022/07/14 03:39:35;;;;;;;11.43;5.85;;;16.80;99.90;;;;;;5092468;28;20099;-48
2022/07/14 03:42:01;;;;;;;13.23;6.50;;;16.70;99.90;;;;;;5104113;28;20032;-54
2022/07/14 03:44:27;;;;;;;13.95;6.78;;;16.70;99.90;;;;;;5108524;28;20027;-57
2022/07/14 03:46:52;;;;;;;15.20;7.18;;;16.70;99.90;;;;;;5094729;28;20403;-53
2022/07/14 03:49:18;;;;;;;11.35;7.05;;;16.70;99.90;;;;;;5091853;28;20028;-58
2022/07/14 03:51:44;;;;;;;10.98;6.55;;;16.70;99.90;;;;;;5091192;28;20028;-57
2022/07/14 03:54:10;;;;;;;10.55;6.55;;;16.70;99.90;;;;;;5091785;28;20379;-53
2022/07/14 03:56:39;;;;;;;12.02;6.50;;;16.70;99.90;;;;;;5091918;28;20020;-49
2022/07/14 03:59:05;;;;;;;10.13;6.30;;;16.70;99.90;;;;;;5091513;28;20375;-55
2022/07/14 04:01:31;;;;;;;12.25;6.40;;;16.70;99.90;;;;;;5091675;28;20030;-46
2022/07/14 04:03:57;;;;;;;13.88;7.05;;;16.70;99.90;;;;;;5091450;28;20095;-52
2022/07/14 04:06:23;;;;;;;14.40;6.47;;;16.70;99.90;;;;;;5093789;28;20020;-51
2022/07/14 04:08:49;;;;;;;10.20;6.55;;;16.60;99.90;;;;;;5099834;28;20031;-59
2022/07/14 04:11:15;;;;;;;12.43;6.28;;;16.60;99.90;;;;;;5091484;28;20026;-49
2022/07/14 04:13:41;;;;;;;13.30;6.45;;;16.60;99.90;;;;;;5091728;28;20035;-61
2022/07/14 04:16:07;;;;;;;11.07;6.85;;;16.60;99.90;;;;;;5091441;28;20016;-59
2022/07/14 04:18:32;;;;;;;11.80;6.50;;;16.60;99.90;;;;;;5091503;28;20070;-50
2022/07/14 04:20:58;;;;;;;14.50;6.57;;;16.60;99.90;;;;;;5091360;28;20012;-39
2022/07/14 04:23:24;;;;;;;15.05;6.25;;;16.50;99.90;;;;;;5091456;28;20077;-39
2022/07/14 04:25:49;;;;;;;11.82;6.20;;;16.50;99.90;;;;;;5091337;28;20057;-39
2022/07/14 04:28:16;;;;;;;14.00;6.43;;;16.50;99.90;;;;;;5091221;28;20056;-56
2022/07/14 04:30:42;;;;;;;11.32;6.00;;;16.50;99.90;;;;;;5102510;28;20020;-44
2022/07/14 04:33:09;;;;;;;12.45;6.47;;;16.60;99.90;;;;;;5112659;27;20621;-56
2022/07/14 04:35:35;;;;;;;16.13;6.53;;;16.60;99.90;;;;;;5097774;28;20572;-54
2022/07/14 04:38:01;;;;;;;12.55;5.85;;;16.60;99.90;;;;;;5103381;28;20081;-42
2022/07/14 04:40:27;;;;;;;11.80;6.13;;;16.70;99.90;;;;;;5104295;28;20016;-51
2022/07/14 04:42:52;;;;;;;10.90;5.88;;;16.70;99.90;;;;;;5099098;28;20035;-42
2022/07/14 04:45:20;;;;;;;11.45;6.43;;;16.80;99.90;;;;;;5091249;28;20433;-54
2022/07/14 04:47:45;;;;;;;11.98;5.68;;;16.80;99.90;;;;;;5090832;28;20101;-54
2022/07/14 04:52:55;;;;;;;11.80;5.72;;;16.90;99.90;;;;;;5091403;28;20090;-54
2022/07/14 04:55:21;;;;;;;11.32;5.80;;;17.00;99.90;;;;;;5090874;28;20028;-54
2022/07/14 04:57:47;;;;;;;10.13;5.82;;;17.00;99.90;;;;;;5091299;28;20364;-54
2022/07/14 05:00:13;;;;;;;12.68;5.50;;;17.00;99.90;;;;;;5090853;28;20542;-57
2022/07/14 05:02:38;;;;;;;10.23;5.30;;;17.00;99.90;;;;;;5091715;28;20118;-54
2022/07/14 05:05:04;;;;;;;10.40;5.18;;;17.10;99.90;;;;;;5072829;28;20019;-58
2022/07/14 05:07:30;;;;;;;10.35;5.63;;;17.10;99.90;;;;;;5096111;28;20060;-54
2022/07/14 05:09:56;;;;;;;11.57;5.55;;;17.10;99.90;;;;;;5095034;28;20063;-55
2022/07/14 05:12:22;;;;;;;12.10;5.90;;;17.20;99.90;;;;;;5095047;28;20032;-55
2022/07/14 05:14:47;;;;;;;11.73;5.40;;;17.20;99.90;;;;;;5106748;28;20040;-52
2022/07/14 05:17:14;;;;;;;9.43;5.40;;;17.30;99.90;;;;;;5113065;28;20027;-52
2022/07/14 05:19:40;;;;;;;9.38;4.95;;;17.50;99.90;;;;;;5105333;28;20024;-45
2022/07/14 05:22:06;;;;;;;14.35;5.53;;;17.60;99.90;;;;;;5083934;28;20173;-56
2022/07/14 05:24:31;;;;;;;9.73;5.10;;;17.70;99.90;;;;;;5094717;28;20032;-55
2022/07/14 05:26:58;;;;;;;12.10;4.50;;;17.90;99.90;;;;;;5094960;28;20394;-57
2022/07/14 05:29:25;;;;;;;10.63;4.40;;;17.90;99.90;;;;;;5094742;28;20016;-48
2022/07/14 05:31:51;;;;;;;10.02;4.57;;;18.10;99.90;;;;;;5099699;28;20034;-52
2022/07/14 05:34:17;;;;;;;7.10;4.10;;;18.20;99.90;;;;;;5103729;28;20417;-53
2022/07/14 05:36:42;;;;;;;10.45;4.10;;;18.30;99.90;;;;;;5094349;28;20019;-59
2022/07/14 05:39:08;;;;;;;9.88;4.22;;;18.50;99.90;;;;;;5094518;28;20040;-55
2022/07/14 05:41:34;;;;;;;8.43;4.10;;;18.60;99.90;;;;;;5094441;28;20020;-54
2022/07/14 05:43:59;;;;;;;10.20;4.05;;;18.80;99.90;;;;;;5094474;28;20032;-54
2022/07/14 05:46:25;;;;;;;9.15;3.92;;;19.00;99.90;;;;;;5094239;28;20036;-56
2022/07/14 05:48:51;;;;;;;8.68;3.95;;;19.10;99.90;;;;;;5076004;28;20028;-57
2022/07/14 05:51:18;;;;;;;9.70;3.83;;;19.30;99.90;;;;;;5094406;28;20024;-60
2022/07/14 05:53:45;;;;;;;10.80;4.13;;;19.60;99.90;;;;;;5094049;28;20093;-55
2022/07/14 05:56:15;;;;;;;11.80;3.40;;;19.90;98.90;;;;;;5103640;28;20016;-53
2022/07/14 05:58:41;;;;;;;9.02;3.10;;;20.30;98.20;;;;;;5119779;27;20036;-57
2022/07/14 06:01:07;;;;;;;9.52;3.58;;;21.10;96.80;;;;;;5123411;27;20023;-57
2022/07/14 06:03:34;;;;;;;10.52;3.33;;;22.00;95.50;;;;;;5133742;27;20031;-58
2022/07/14 06:06:01;;;;;;;8.63;2.97;;;23.00;93.40;;;;;;5123094;27;20042;-42
2022/07/14 06:08:28;;;;;;;8.38;2.80;;;23.90;91.60;;;;;;5114140;27;20399;-40
2022/07/14 06:10:55;;;;;;;8.25;2.90;;;24.70;90.00;;;;;;5115592;27;20035;-47
2022/07/14 06:13:26;;;;;;;8.02;3.13;;;25.30;88.50;;;;;;5111194;27;20038;-50
2022/07/14 06:15:51;;;;;;;10.90;3.50;;;26.00;84.90;;;;;;5113393;27;20417;-49
2022/07/14 06:18:18;;;;;;;8.43;3.78;;;26.40;82.70;;;;;;5124111;27;20019;-55
2022/07/14 06:20:43;;;;;;;8.88;3.70;;;26.80;80.80;;;;;;5117106;27;20028;-55
2022/07/14 06:23:09;;;;;;;10.52;3.55;;;27.10;79.20;;;;;;5115091;27;20034;-54
2022/07/14 06:25:40;;;;;;;8.70;3.45;;;27.50;79.00;;;;;;5109954;27;20052;-50
2022/07/14 06:28:06;;;;;;;8.35;3.72;;;27.70;77.50;;;;;;5108738;27;20373;-50
2022/07/14 06:30:32;;;;;;;9.23;4.07;;;27.80;76.50;;;;;;5114320;27;20015;-53
2022/07/14 06:32:58;;;;;;;9.05;3.30;;;27.90;75.90;;;;;;5113639;27;20094;-44
2022/07/14 06:35:24;;;;;;;9.57;4.03;;;28.30;76.00;;;;;;5105070;28;20112;-47
2022/07/14 06:37:54;;;;;;;8.15;3.67;;;28.70;74.70;;;;;;5111320;28;20032;-53
2022/07/14 06:40:21;;;;;;;8.68;3.75;;;28.90;72.60;;;;;;5100626;28;20206;-46
2022/07/14 06:42:47;;;;;;;6.63;3.33;;;29.30;70.40;;;;;;5117675;27;20034;-50
2022/07/14 06:45:13;;;;;;;8.85;3.58;;;29.40;69.80;;;;;;5113657;27;20045;-46
2022/07/14 06:47:39;;;;;;;7.35;3.63;;;29.20;69.50;;;;;;5112970;27;20072;-52
2022/07/14 06:50:06;;;;;;;7.35;3.53;;;29.20;70.20;;;;;;5114624;27;20111;-44
2022/07/14 06:52:31;;;;;;;10.93;4.30;;;29.40;69.80;;;;;;5115478;27;20023;-50
2022/07/14 06:54:59;;;;;;;7.57;3.42;;;29.70;67.10;;;;;;5093219;28;20432;-42
2022/07/14 06:57:25;;;;;;;10.98;3.80;;;29.50;66.80;;;;;;5113365;28;20059;-44
2022/07/14 06:59:50;;;;;;;9.85;3.65;;;29.20;68.60;;;;;;5115457;27;20430;-52
2022/07/14 07:02:16;;;;;;;9.00;3.90;;;29.10;69.40;;;;;;5118704;27;20023;-59
2022/07/14 07:04:42;;;;;;;7.63;3.42;;;29.20;69.60;;;;;;5114538;27;20031;-57
2022/07/14 07:07:08;;;;;;;7.00;3.33;;;29.10;69.50;;;;;;5112076;27;20066;-57
2022/07/14 07:09:33;;;;;;;7.63;2.97;;;29.30;69.40;;;;;;5109405;27;20073;-47
2022/07/14 07:11:59;;;;;;;6.72;3.10;;;29.30;68.30;;;;;;5111504;27;20030;-49
2022/07/14 07:14:25;;;;;;;8.68;3.50;;;29.80;67.80;;;;;;5113267;27;20024;-52
2022/07/14 07:16:51;;;;;;;8.18;3.10;;;30.30;65.80;;;;;;5112635;27;20031;-52
2022/07/14 07:19:17;;;;;;;7.85;3.17;;;30.20;64.80;;;;;;5110910;27;20019;-42
2022/07/14 07:21:42;;;;;;;9.85;3.85;;;30.50;64.20;;;;;;5109543;27;20766;-53
2022/07/14 07:24:09;;;;;;;9.00;3.65;;;30.60;63.20;;;;;;5114100;27;20023;-45
2022/07/14 07:26:38;;;;;;;8.38;3.63;;;30.90;64.00;;;;;;5108689;27;20060;-41
2022/07/14 07:29:04;;;;;;;7.07;3.72;;;31.20;61.90;;;;;;5109558;27;20111;-45
2022/07/14 07:31:31;;;;;;;8.45;3.95;;;31.20;60.50;;;;;;5112037;27;20032;-44
2022/07/14 07:33:58;;;;;;;7.57;3.65;;;30.90;60.20;;;;;;5106728;27;20020;-42
2022/07/14 07:36:24;;;;;;;7.35;3.85;;;30.60;61.40;;;;;;5111405;27;20034;-49
2022/07/14 07:38:50;;;;;;;10.55;3.55;;;30.60;62.10;;;;;;5110314;27;20032;-39
2022/07/14 07:41:15;;;;;;;7.40;4.07;;;31.00;60.40;;;;;;5109388;27;20097;-41
2022/07/14 07:43:41;;;;;;;10.48;4.10;;;30.90;60.00;;;;;;5111802;27;20462;-44
2022/07/14 07:46:07;;;;;;;6.07;3.60;;;30.60;60.30;;;;;;5106425;27;20051;-42
2022/07/14 07:48:33;;;;;;;9.35;4.22;;;30.50;60.70;;;;;;5110349;27;20024;-47
2022/07/14 07:50:59;;;;;;;9.15;4.68;;;30.00;62.70;;;;;;5112084;27;20108;-46
2022/07/14 07:53:26;;;;;;;8.80;4.43;;;30.30;62.00;;;;;;5111870;27;20581;-51
2022/07/14 07:55:52;;;;;;;9.32;4.38;;;30.50;60.00;;;;;;5118387;27;20011;-55
2022/07/14 07:58:19;;;;;;;8.68;4.20;;;30.40;61.60;;;;;;5115360;27;20027;-46
2022/07/14 08:00:44;;;;;;;8.07;3.78;;;30.80;60.00;;;;;;5118623;27;20080;-56
2022/07/14 08:03:10;;;;;;;6.75;3.78;;;31.20;59.30;;;;;;5116104;27;20452;-56
2022/07/14 08:05:36;;;;;;;9.55;4.43;;;31.80;57.20;;;;;;5116988;27;20046;-51
2022/07/14 08:08:02;;;;;;;7.53;3.67;;;31.50;55.20;;;;;;5115921;27;20067;-45
2022/07/14 08:10:28;;;;;;;6.47;3.20;;;30.30;56.80;;;;;;5096450;27;20023;-46
2022/07/14 08:12:53;;;;;;;7.25;3.25;;;30.00;59.90;;;;;;5109172;27;20119;-45
2022/07/14 08:15:20;;;;;;;7.80;3.05;;;30.70;58.60;;;;;;5111035;27;20103;-50
2022/07/14 08:17:46;;;;;;;6.65;3.88;;;31.40;57.30;;;;;;5111012;27;20024;-45
2022/07/14 08:20:12;;;;;;;6.13;3.55;;;31.10;55.40;;;;;;5111187;28;20474;-52
2022/07/14 08:22:39;;;;;;;7.30;3.83;;;31.10;56.70;;;;;;5108285;27;20477;-55
2022/07/14 08:25:07;;;;;;;8.18;3.75;;;31.10;56.20;;;;;;5111325;28;20019;-50
2022/07/14 08:27:33;;;;;;;9.15;3.47;;;30.70;57.00;;;;;;5109700;27;20039;-59
2022/07/14 08:29:59;;;;;;;6.80;3.35;;;31.00;57.60;;;;;;5110285;28;20032;-43
2022/07/14 08:32:38;;;;;;;6.45;3.42;;;31.10;57.90;;;;;;5110664;28;20030;-52
2022/07/14 08:35:06;;;;;;;8.70;3.90;;;31.00;57.80;;;;;;5095555;27;20522;-54
2022/07/14 08:37:33;;;;;;;9.70;3.90;;;30.60;56.20;;;;;;5110954;27;20100;-55
2022/07/14 08:40:00;;;;;;;7.70;3.70;;;30.00;59.20;;;;;;5112042;27;20039;-55
2022/07/14 08:42:31;;;;;;;7.75;3.72;;;30.20;59.20;;;;;;5110821;28;20034;-55
2022/07/14 08:44:57;;;;;;;8.27;3.72;;;30.50;57.90;;;;;;5093424;28;20019;-43
2022/07/14 08:47:23;;;;;;;8.05;3.75;;;31.00;55.60;;;;;;5114301;27;20097;-56
2022/07/14 08:49:49;;;;;;;6.13;3.17;;;30.90;54.80;;;;;;5111124;28;20040;-56
2022/07/14 08:52:17;;;;;;;6.97;3.22;;;31.40;55.10;;;;;;5113796;27;20019;-56
2022/07/14 08:54:45;;;;;;;5.65;3.30;;;32.20;53.40;;;;;;5111337;28;20032;-57
2022/07/14 08:57:13;;;;;;;9.13;3.38;;;32.60;50.40;;;;;;5111902;28;20024;-41
2022/07/14 08:59:40;;;;;;;7.43;3.63;;;32.70;52.10;;;;;;5110776;28;20095;-54
2022/07/14 09:02:06;;;;;;;6.85;3.08;;;32.90;49.80;;;;;;5112522;28;20047;-48
2022/07/14 09:04:32;;;;;;;7.15;3.10;;;33.20;51.60;;;;;;5110411;28;20024;-47
2022/07/14 09:06:57;;;;;;;5.60;2.92;;;33.20;48.30;;;;;;5108917;28;20593;-42
2022/07/14 09:09:34;;;;;;;4.95;2.38;;;32.50;47.80;;;;;;5111193;28;20441;-50
2022/07/14 09:12:07;;;;;;;5.03;2.75;;;32.60;49.80;;;;;;5112651;28;20062;-40
2022/07/14 09:17:25;;;;;;;4.95;2.25;;;33.20;48.50;;;;;;5118565;28;20103;-52
2022/07/14 09:20:06;;;;;;;6.60;1.95;;;33.60;46.80;;;;;;5129661;28;20047;-52
2022/07/14 09:22:32;;;;;;;4.50;1.70;;;33.80;46.40;;;;;;5128044;28;20529;-44
2022/07/14 09:24:58;;;;;;;5.47;2.00;;;33.90;46.00;;;;;;5116513;28;20034;-55
2022/07/14 09:27:25;;;;;;;4.85;1.85;;;33.80;43.30;;;;;;5114812;28;20023;-53
2022/07/14 09:29:57;;;;;;;7.10;2.00;;;33.70;44.80;;;;;;5129579;28;20481;-47
2022/07/14 09:32:42;;;;;;;5.45;2.30;;;33.90;44.70;;;;;;5119566;28;20576;-51
2022/07/14 09:35:09;;;;;;;5.43;2.20;;;33.70;44.70;;;;;;5108466;28;20024;-53
2022/07/14 09:37:37;;;;;;;3.13;1.63;;;33.50;43.80;;;;;;5110027;28;20012;-49
2022/07/14 09:40:04;;;;;;;4.65;1.90;;;33.10;44.60;;;;;;5114546;28;20028;-53
2022/07/14 09:42:50;;;;;;;7.03;2.50;;;32.70;41.90;;;;;;5111003;28;20028;-51
2022/07/14 09:45:17;;;;;;;4.15;1.90;;;32.70;43.50;;;;;;5111918;28;20031;-55
2022/07/14 09:48:07;;;;;;;4.43;1.80;;;33.00;42.70;;;;;;5120994;28;20054;-52
2022/07/14 09:50:36;;;;;;;4.18;1.83;;;33.30;43.70;;;;;;5111681;27;20024;-53
2022/07/14 09:53:23;;;;;;;5.30;2.00;;;33.50;41.70;;;;;;5120330;27;20020;-50
2022/07/14 09:56:07;;;;;;;4.22;1.83;;;33.10;40.70;;;;;;5109773;27;20038;-51
2022/07/14 09:58:33;;;;;;;5.35;1.83;;;33.20;40.90;;;;;;5107927;27;20726;-50
2022/07/14 10:01:02;;;;;;;4.25;1.95;;;33.50;42.50;;;;;;5105718;27;20494;-46
2022/07/14 10:03:30;;;;;;;6.30;1.85;;;33.70;38.30;;;;;;5115759;27;20027;-52
2022/07/14 10:05:57;;;;;;;5.40;1.73;;;33.70;40.40;;;;;;5111179;27;20104;-55
2022/07/14 10:08:34;;;;;;;2.95;1.60;;;34.00;39.90;;;;;;5108364;27;20498;-46
2022/07/14 10:11:03;;;;;;;3.65;1.55;;;34.00;39.30;;;;;;5124397;27;20019;-51
2022/07/14 10:13:30;;;;;;;4.47;1.65;;;33.70;40.20;;;;;;5122855;27;20431;-59
2022/07/14 10:15:57;;;;;;;5.15;1.75;;;33.40;38.90;;;;;;5125604;27;20019;-48
2022/07/14 10:18:24;;;;;;;4.10;1.75;;;33.30;41.20;;;;;;5124669;27;20061;-56
2022/07/14 10:20:52;;;;;;;4.95;1.58;;;33.00;39.40;;;;;;5123353;27;20027;-55
2022/07/14 10:23:19;;;;;;;5.80;2.00;;;33.20;39.60;;;;;;5126260;27;20027;-49
2022/07/14 10:25:50;;;;;;;7.68;1.80;;;33.40;40.00;;;;;;5122548;27;20019;-58
2022/07/14 10:28:17;;;;;;;4.10;1.30;;;33.50;38.80;;;;;;5125921;27;20493;-52
2022/07/14 10:31:18;;;;;;;3.35;1.30;;;33.70;37.50;;;;;;5119762;27;20019;-51
2022/07/14 10:33:56;;;;;;;5.50;1.48;;;33.20;39.90;;;;;;5091817;28;20149;-53
2022/07/14 10:36:47;;;;;;;3.93;1.50;;;33.50;37.90;;;;;;5104965;28;20024;-58
2022/07/14 10:39:27;;;;;;;5.82;1.95;;;33.40;38.20;;;;;;5108431;28;20704;-44
2022/07/14 10:42:21;;;;;;;3.72;1.50;;;33.60;38.10;;;;;;5093467;28;20108;-55
2022/07/14 10:44:47;;;;;;;3.45;1.48;;;33.30;38.90;;;;;;5093351;28;20024;-57
2022/07/14 10:47:18;;;;;;;4.03;1.58;;;33.60;36.90;;;;;;5093014;28;20040;-55
2022/07/14 10:50:09;;;;;;;4.88;1.50;;;33.50;40.00;;;;;;5093519;28;20024;-59
2022/07/14 10:52:37;;;;;;;4.63;1.55;;;33.30;37.70;;;;;;5093592;28;20108;-56
2022/07/14 10:55:23;;;;;;;5.88;1.50;;;33.50;37.40;;;;;;5093366;28;20086;-57
2022/07/14 10:58:01;;;;;;;5.05;1.35;;;33.20;38.60;;;;;;5093168;28;20046;-58
2022/07/14 11:03:21;;;;;;;4.35;1.80;;;33.20;39.30;;;;;;5093277;28;20077;-58
2022/07/14 11:06:08;;;;;;;3.65;1.40;;;33.00;38.30;;;;;;5093137;28;20027;-58
2022/07/14 11:08:38;;;;;;;5.93;1.58;;;33.00;38.70;;;;;;5074841;28;20032;-43
2022/07/14 11:11:08;;;;;;;3.50;1.38;;;32.80;38.10;;;;;;5093101;28;20105;-52
2022/07/14 11:14:07;;;;;;;5.40;1.33;;;32.80;40.30;;;;;;5092730;28;20042;-55
2022/07/14 11:16:49;;;;;;;4.45;1.30;;;32.90;38.20;;;;;;5047732;28;20398;-55
2022/07/14 11:19:33;;;;;;;4.85;1.40;;;32.50;39.80;;;;;;5092677;28;20043;-51
2022/07/14 11:22:20;;;;;;;2.63;1.00;;;32.50;38.00;;;;;;5092643;28;20070;-53
2022/07/14 11:24:55;;;;;;;4.95;1.50;;;32.40;38.30;;;;;;5092555;28;20020;-51
2022/07/14 11:27:38;;;;;;;5.10;2.00;;;32.30;39.70;;;;;;5074238;28;20024;-56
2022/07/14 11:30:33;;;;;;;3.42;1.25;;;32.50;39.40;;;;;;5096466;28;20034;-55
2022/07/14 11:33:07;;;;;;;4.43;1.40;;;32.80;37.80;;;;;;5092556;28;20467;-46
2022/07/14 11:38:29;;;;;;;4.72;1.58;;;31.90;39.20;;;;;;5104297;28;20074;-56
2022/07/14 11:40:55;;;;;;;2.90;1.20;;;31.30;39.60;;;;;;5092391;28;20020;-48
2022/07/14 11:43:29;;;;;;;3.53;1.40;;;31.60;40.70;;;;;;5092470;28;20032;-55
2022/07/14 11:45:56;;;;;;;5.50;1.70;;;31.20;38.20;;;;;;5092045;28;20024;-50
2022/07/14 11:48:27;;;;;;;4.22;1.25;;;31.30;39.90;;;;;;5092149;28;20067;-58
2022/07/14 11:51:17;;;;;;;3.90;1.40;;;31.20;39.00;;;;;;5091921;28;20106;-47
2022/07/14 11:53:43;;;;;;;3.65;1.20;;;31.70;39.50;;;;;;5092008;28;20031;-55
2022/07/14 11:56:10;;;;;;;4.63;1.30;;;32.10;39.60;;;;;;5073932;28;20470;-50
2022/07/14 11:58:40;;;;;;;3.03;1.20;;;31.40;37.10;;;;;;5099341;27;20076;-53
2022/07/14 12:01:07;;;;;;;3.50;1.40;;;31.40;39.90;;;;;;5107476;28;20028;-51
2022/07/14 12:03:34;;;;;;;3.63;1.30;;;31.60;40.10;;;;;;5106460;28;20020;-58
2022/07/14 12:06:01;;;;;;;2.55;1.20;;;32.00;39.00;;;;;;5112291;27;20036;-58
2022/07/14 12:08:30;;;;;;;2.67;1.10;;;32.40;37.80;;;;;;5111929;27;20568;-60
2022/07/14 12:11:22;;;;;;;;;;;32.10;36.40;;;;;;5115018;27;20069;-44
2022/07/14 12:13:53;;;;;;;3.13;1.40;;;32.20;37.20;;;;;;5106702;27;19903;-46
2022/07/14 12:16:20;;;;;;;3.70;1.35;;;32.40;39.80;;;;;;5090996;28;20015;-57
2022/07/14 12:18:46;;;;;;;3.10;1.30;;;32.50;37.20;;;;;;5111410;27;20020;-49
2022/07/14 12:21:14;;;;;;;5.70;1.38;;;32.60;38.10;;;;;;5110942;27;20593;-44
2022/07/14 12:23:54;;;;;;;4.20;1.33;;;32.70;37.10;;;;;;5111313;27;20039;-53
2022/07/14 12:26:22;;;;;;;4.05;1.30;;;32.80;37.10;;;;;;5117152;27;20019;-49
2022/07/14 12:28:53;;;;;;;3.60;1.30;;;32.80;38.10;;;;;;5109720;27;20122;-40
2022/07/14 12:31:19;;;;;;;4.75;1.50;;;32.40;35.50;;;;;;5106007;27;20096;-46
2022/07/14 12:33:46;;;;;;;4.70;1.60;;;32.50;37.40;;;;;;5104250;28;20422;-43
2022/07/14 12:36:18;;;;;;;3.95;1.38;;;32.40;36.10;;;;;;5110938;27;20397;-42
2022/07/14 12:38:45;;;;;;;4.88;1.23;;;32.30;37.10;;;;;;5111567;27;20024;-55
2022/07/14 12:41:13;;;;;;;6.22;1.50;;;32.00;34.30;;;;;;5112301;28;20073;-47
2022/07/14 12:43:42;;;;;;;4.13;1.27;;;32.00;37.20;;;;;;5113993;27;20076;-44
2022/07/14 12:46:22;;;;;;;2.70;1.20;;;31.80;37.40;;;;;;5118526;27;20039;-57
2022/07/14 12:48:48;;;;;;;3.05;1.40;;;30.80;37.20;;;;;;5128314;27;20035;-46
2022/07/14 12:51:34;;;;;;;3.58;1.33;;;30.00;38.50;;;;;;5126524;27;20538;-45
2022/07/14 12:53:59;;;;;;;5.05;1.40;;;29.70;39.50;;;;;;5128348;27;20023;-49
2022/07/14 12:56:26;;;;;;;2.53;1.15;;;29.90;39.60;;;;;;5129577;28;20057;-50
2022/07/14 12:58:53;;;;;;;3.30;1.20;;;30.10;39.50;;;;;;5122059;28;20150;-51
2022/07/14 13:01:20;;;;;;;3.35;1.30;;;30.30;39.50;;;;;;5112851;28;20027;-51
2022/07/14 13:03:55;;;;;;;4.20;1.40;;;30.50;37.80;;;;;;5103665;28;20028;-52
2022/07/14 13:06:21;;;;;;;2.75;1.27;;;30.70;39.20;;;;;;5109545;28;20028;-45